Athens, PA

2:26 AM EST on February 14, 2016 (GMT -0500)
Orange Hill | | Change Station
CLOSE
Current Station
Personal Weather Station
Location: Athens, PA
Elevation: 1473 ft
Nearby Weather Stations
Active Advisory: Wind Chill Warning Active Notice: Local Storm Report

Elev 1473 ft 41.93 °N, 76.50 °W | Updated 4 minutes ago

Partly Cloudy
Partly Cloudy
-4.3 °F
Feels Like -20 °F
N
9.0
Wind Variable Wind from North

Today
High -- | Low -- °F
--% Chance of Precip.
Yesterday
High -- | Low -- °F
Precip. -- in
Pressure 30.44 in
Visibility 10.0 miles
Clouds Few 3000 ft
Windchill -20 °F
Dew Point -8 °F
Humidity 78%
Rainfall 0.00 in
Snow Depth Not available.
7:03 AM 5:37 PM
Waxing Crescent, 39% visible
METAR KELM 140653Z AUTO 04003KT 10SM FEW030 M19/M25 A3036 RMK AO2 SLP308 T11891250
Pressure 30.44 in
Visibility 10.0 miles
Clouds Few 3000 ft
Windchill -20 °F
Dew Point -8 °F
Humidity 78%
Rainfall 0.00 in
Snow Depth Not available.
7:03 AM 5:37 PM
Waxing Crescent, 39% visible
METAR KELM 140653Z AUTO 04003KT 10SM FEW030 M19/M25 A3036 RMK AO2 SLP308 T11891250

10-Day Weather Forecast

Almanac

Astronomy

Feb. 14, 2016 Rise Set
Actual Time
Civil Twilight
Nautical Twilight
Astronomical Twilight
Moon
Length of Visible Light
Length of Day
Tomorrow will be .
, % of the Moon is Illuminated

Today's Extremes

State Highs State Lows

Community

WunderPhotos

Upload Photos

1,892,757 photos uploaded!

WunderBlog® & News

Nearby

Air Quality

  Air Quality AQ Index Pollutant
Not available.

Snow Depth

Station Depth Elevation

Earthquake Activity

City Distance Mag. Time & Date
Minimum magnitude displayed is 2.5.

Coastal Water Temperatures

Place Temperature

Stations

Nearby Weather Stations

Station Location Temp. Windchill Dew Point Humidity Wind Precip. Elev Updated Type
                   

Watches & Warnings

Wind Chill Warning
Issued: 9:38 PM EST Feb. 13, 2016 – National Weather Service

... Wind chill warning remains in effect until 1 PM EST Sunday...

* locations... northeast Pennsylvania.

* Hazard types... dangerously low wind chills and extreme cold.

* Timing... through Sunday morning.

* Impacts... potential for frostbite and hypothermia. The extreme
cold may also lead to pipes freezing.

* Wind chill readings... as low as 28 below. Lowest wind chill
values will be over the higher terrain.

* Winds... northwest 10 to 15 mph with gusts up to 25
mph... gradually decreasing overnight through Sunday morning.

* Temperatures... near zero to 10 below zero overnight into Sunday
morning. Above zero by midday Sunday.

Precautionary/preparedness actions...

A wind chill warning means the combination of very cold air and
strong winds will create dangerously low wind chill values. This
will result in frost bite and lead to hypothermia or death if
precautions are not taken.